createdAt,value
2023-04-11T00:01:18.879Z,99.90
2023-04-11T00:03:21.836Z,99.90
2023-04-11T00:05:24.697Z,99.90
2023-04-11T00:07:27.185Z,99.90
2023-04-11T00:09:29.644Z,99.90
2023-04-11T00:11:32.415Z,99.90
2023-04-11T00:13:36.645Z,99.90
2023-04-11T00:15:39.168Z,99.90
2023-04-11T00:17:42.365Z,99.90
2023-04-11T00:19:45.522Z,99.90
2023-04-11T00:21:48.339Z,99.90
2023-04-11T00:23:52.219Z,99.90
2023-04-11T00:25:54.687Z,99.90
2023-04-11T00:27:57.194Z,99.90
2023-04-11T00:29:59.690Z,99.90
2023-04-11T00:32:02.258Z,99.90
2023-04-11T00:34:04.952Z,99.90
2023-04-11T00:36:08.719Z,99.90
2023-04-11T00:38:11.370Z,99.90
2023-04-11T00:40:15.859Z,99.90
2023-04-11T00:42:19.541Z,99.90
2023-04-11T00:44:22.085Z,99.90
2023-04-11T00:46:24.834Z,99.90
2023-04-11T00:48:27.840Z,99.90
2023-04-11T00:50:30.424Z,99.90
2023-04-11T00:52:33.799Z,99.90
2023-04-11T00:54:36.401Z,99.90
2023-04-11T00:56:39.179Z,99.90
2023-04-11T00:58:42.048Z,99.90
2023-04-11T01:00:46.563Z,99.90
2023-04-11T01:02:49.237Z,99.90
2023-04-11T01:04:51.951Z,99.90
2023-04-11T01:06:56.326Z,99.90
2023-04-11T01:08:59.442Z,99.90
2023-04-11T01:11:02.118Z,99.90
2023-04-11T01:13:04.791Z,99.90
2023-04-11T01:15:08.219Z,99.90
2023-04-11T01:17:12.725Z,99.90
2023-04-11T01:19:17.529Z,99.90
2023-04-11T01:21:20.607Z,99.90
2023-04-11T01:23:23.538Z,99.90
2023-04-11T01:25:26.126Z,99.90
2023-04-11T01:27:28.714Z,99.90
2023-04-11T01:29:31.792Z,99.90
2023-04-11T01:31:34.372Z,99.90
2023-04-11T01:33:37.007Z,99.90
2023-04-11T01:35:40.012Z,99.90
2023-04-11T01:37:42.746Z,99.90
2023-04-11T01:39:45.517Z,99.90
2023-04-11T01:41:49.008Z,99.90
2023-04-11T01:43:51.786Z,99.90
2023-04-11T01:45:54.385Z,99.90
2023-04-11T01:47:57.438Z,99.90
2023-04-11T01:50:00.050Z,99.90
2023-04-11T01:52:02.588Z,99.90
2023-04-11T01:54:05.765Z,99.90
2023-04-11T01:56:09.256Z,99.90
2023-04-11T01:58:11.820Z,99.90
2023-04-11T02:00:15.260Z,99.90
2023-04-11T02:02:18.211Z,99.90
2023-04-11T02:04:21.105Z,99.90
2023-04-11T02:06:23.768Z,99.90
2023-04-11T02:08:26.450Z,99.90
2023-04-11T02:10:30.955Z,99.90
2023-04-11T02:12:33.752Z,99.90
2023-04-11T02:14:42.792Z,99.90
2023-04-11T02:16:52.090Z,99.90
2023-04-11T02:18:54.974Z,99.90
2023-04-11T02:20:57.892Z,99.90
2023-04-11T02:23:02.529Z,99.90
2023-04-11T02:25:06.057Z,99.90
2023-04-11T02:27:08.554Z,99.90
2023-04-11T02:29:11.364Z,99.90
2023-04-11T02:31:13.920Z,99.90
2023-04-11T02:33:18.629Z,99.90
2023-04-11T02:35:21.417Z,99.90
2023-04-11T02:37:25.500Z,99.90
2023-04-11T02:39:28.785Z,99.90
2023-04-11T02:41:32.340Z,99.90
2023-04-11T02:43:36.305Z,99.90
2023-04-11T02:45:39.368Z,99.90
2023-04-11T02:47:43.839Z,99.90
2023-04-11T02:49:47.952Z,99.90
2023-04-11T02:51:52.887Z,99.90
2023-04-11T02:53:55.814Z,99.90
2023-04-11T02:55:58.953Z,99.90
2023-04-11T02:58:02.088Z,99.90
2023-04-11T03:00:07.201Z,99.90
2023-04-11T03:02:11.779Z,99.90
2023-04-11T03:04:14.479Z,99.90
2023-04-11T03:06:18.900Z,99.90
2023-04-11T03:08:21.908Z,99.90
2023-04-11T03:10:26.372Z,99.90
2023-04-11T03:12:29.673Z,99.90
2023-04-11T03:14:34.045Z,99.90
2023-04-11T03:16:37.041Z,99.90
2023-04-11T03:18:39.954Z,99.90
2023-04-11T03:20:44.460Z,99.90
2023-04-11T03:22:48.877Z,99.90
2023-04-11T03:24:51.558Z,99.90
2023-04-11T03:26:57.193Z,99.90
2023-04-11T03:28:59.736Z,99.90
2023-04-11T03:31:04.387Z,99.90
2023-04-11T03:33:07.097Z,99.90
2023-04-11T03:35:10.177Z,99.90
2023-04-11T03:37:14.220Z,99.90
2023-04-11T03:39:16.813Z,99.90
2023-04-11T03:41:19.408Z,99.90
2023-04-11T03:43:22.058Z,99.90
2023-04-11T03:45:25.189Z,99.90
2023-04-11T03:47:28.495Z,99.90
2023-04-11T03:49:31.270Z,99.90
2023-04-11T03:51:34.063Z,99.90
2023-04-11T03:53:38.476Z,99.90
2023-04-11T03:55:42.964Z,99.90
2023-04-11T03:57:46.179Z,99.90
2023-04-11T03:59:49.089Z,99.90
2023-04-11T04:01:51.868Z,99.90
2023-04-11T04:03:54.833Z,99.90
2023-04-11T04:05:57.775Z,99.90
2023-04-11T04:08:00.374Z,99.90
2023-04-11T04:10:05.643Z,99.90
2023-04-11T04:12:08.365Z,99.90
2023-04-11T04:14:12.720Z,99.90
2023-04-11T04:16:16.982Z,99.90
2023-04-11T04:18:21.431Z,99.90
2023-04-11T04:20:24.373Z,99.90
2023-04-11T04:22:30.536Z,99.90
2023-04-11T04:24:36.769Z,99.90
2023-04-11T04:26:41.121Z,99.90
2023-04-11T04:28:45.618Z,99.90
2023-04-11T04:30:51.704Z,99.90
2023-04-11T04:32:57.226Z,99.90
2023-04-11T04:35:00.948Z,99.90
2023-04-11T04:37:05.311Z,99.90
2023-04-11T04:39:09.972Z,99.90
2023-04-11T04:41:15.231Z,99.90
2023-04-11T04:43:21.487Z,99.90
2023-04-11T04:45:25.920Z,99.90
2023-04-11T04:47:30.776Z,99.90
2023-04-11T04:49:33.510Z,99.90
2023-04-11T04:51:36.690Z,99.90
2023-04-11T04:53:41.114Z,99.90
2023-04-11T04:55:45.897Z,99.90
2023-04-11T04:57:48.703Z,99.90
2023-04-11T04:59:51.492Z,99.90
2023-04-11T05:01:54.247Z,99.90
2023-04-11T05:03:59.594Z,99.90
2023-04-11T05:06:05.771Z,99.90
2023-04-11T05:08:08.451Z,99.90
2023-04-11T05:10:12.017Z,99.90
2023-04-11T05:12:15.563Z,99.90
2023-04-11T05:14:18.217Z,99.90
2023-04-11T05:16:21.333Z,99.90
2023-04-11T05:18:24.195Z,99.90
2023-04-11T05:20:29.085Z,99.90
2023-04-11T05:22:31.893Z,99.90
2023-04-11T05:24:35.366Z,99.90
2023-04-11T05:26:39.764Z,99.90
2023-04-11T05:28:42.638Z,99.90
2023-04-11T05:30:47.037Z,99.90
2023-04-11T05:32:49.745Z,99.90
2023-04-11T05:34:53.013Z,99.90
2023-04-11T05:36:57.788Z,99.90
2023-04-11T05:39:00.525Z,99.90
2023-04-11T05:41:03.891Z,99.90
2023-04-11T05:43:06.482Z,99.90
2023-04-11T05:45:10.364Z,99.90
2023-04-11T05:47:13.108Z,99.90
2023-04-11T05:49:15.696Z,99.90
2023-04-11T05:51:19.684Z,99.90
2023-04-11T05:53:22.399Z,99.90
2023-04-11T05:55:24.946Z,99.90
2023-04-11T05:57:27.493Z,99.90
2023-04-11T05:59:31.360Z,99.90
2023-04-11T06:01:34.180Z,99.90
2023-04-11T06:03:36.929Z,99.90
2023-04-11T06:05:39.507Z,99.90
2023-04-11T06:07:42.297Z,99.90
2023-04-11T06:09:44.922Z,99.90
2023-04-11T06:11:47.465Z,99.90
2023-04-11T06:13:49.956Z,99.90
2023-04-11T06:15:52.510Z,99.90
2023-04-11T06:17:55.229Z,99.90
2023-04-11T06:19:57.884Z,99.90
2023-04-11T06:22:00.468Z,99.90
2023-04-11T06:24:04.696Z,99.90
2023-04-11T06:26:08.164Z,99.90
2023-04-11T06:28:11.783Z,99.90
2023-04-11T06:30:14.617Z,99.90
2023-04-11T06:32:17.116Z,99.90
2023-04-11T06:34:19.621Z,99.90
2023-04-11T06:36:22.147Z,99.90
2023-04-11T06:38:24.857Z,99.90
2023-04-11T06:40:27.464Z,99.90
2023-04-11T06:42:29.982Z,99.90
2023-04-11T06:44:33.512Z,99.90
2023-04-11T06:46:35.985Z,99.90
2023-04-11T06:48:38.473Z,99.90
2023-04-11T06:50:41.177Z,99.90
2023-04-11T06:52:43.689Z,99.90
2023-04-11T06:54:47.201Z,99.90
2023-04-11T06:56:50.491Z,99.90
2023-04-11T06:58:53.018Z,99.90
2023-04-11T07:00:55.482Z,99.90
2023-04-11T07:02:58.999Z,99.90
2023-04-11T07:05:02.137Z,99.90
2023-04-11T07:07:04.695Z,99.90
2023-04-11T07:09:08.917Z,99.90
2023-04-11T07:11:11.784Z,99.90
2023-04-11T07:13:14.400Z,99.90
2023-04-11T07:15:17.010Z,99.90
2023-04-11T07:17:19.587Z,99.90
2023-04-11T07:19:22.095Z,99.90
2023-04-11T07:21:24.738Z,99.90
2023-04-11T07:23:27.375Z,99.90
2023-04-11T07:25:30.304Z,99.90
2023-04-11T07:27:32.962Z,99.90
2023-04-11T07:29:35.467Z,99.90
2023-04-11T07:31:38.198Z,99.90
2023-04-11T07:33:42.527Z,99.90
2023-04-11T07:35:45.019Z,99.90
2023-04-11T07:37:47.541Z,99.90
2023-04-11T07:39:51.377Z,99.90
2023-04-11T07:41:54.056Z,99.90
2023-04-11T07:43:56.784Z,99.90
2023-04-11T07:45:59.705Z,99.90
2023-04-11T07:48:02.414Z,99.90
2023-04-11T07:50:06.276Z,99.90
2023-04-11T07:52:08.891Z,99.90
2023-04-11T07:54:11.800Z,99.90
2023-04-11T07:56:15.158Z,99.90
2023-04-11T07:58:17.680Z,99.90
2023-04-11T08:00:21.385Z,99.90
2023-04-11T08:02:24.046Z,99.90
2023-04-11T08:04:26.768Z,99.90
2023-04-11T08:06:30.367Z,99.90
2023-04-11T08:08:32.877Z,99.90
2023-04-11T08:10:35.401Z,99.90
2023-04-11T08:12:37.987Z,99.90
2023-04-11T08:14:40.474Z,99.90
2023-04-11T08:16:43.000Z,99.90
2023-04-11T08:18:45.715Z,99.90
2023-04-11T08:20:48.449Z,99.90
2023-04-11T08:22:50.979Z,99.90
2023-04-11T08:24:53.452Z,99.90
2023-04-11T08:26:55.978Z,99.90
2023-04-11T08:28:58.453Z,99.90
2023-04-11T08:31:02.871Z,99.90
2023-04-11T08:33:06.625Z,99.90
2023-04-11T08:35:10.221Z,99.90
2023-04-11T08:37:12.713Z,99.90
2023-04-11T08:39:15.401Z,99.90
2023-04-11T08:41:17.880Z,99.90
2023-04-11T08:43:20.350Z,99.90
2023-04-11T08:45:23.465Z,99.90
2023-04-11T08:47:26.531Z,99.90
2023-04-11T08:49:29.104Z,99.90
2023-04-11T08:51:31.992Z,99.90
2023-04-11T08:53:35.896Z,99.90
2023-04-11T08:55:46.047Z,99.90
2023-04-11T08:57:48.748Z,99.90
2023-04-11T08:59:51.499Z,99.90
2023-04-11T09:01:55.845Z,99.90
2023-04-11T09:03:59.984Z,99.90
2023-04-11T09:06:06.251Z,99.90
2023-04-11T09:08:10.227Z,99.90
2023-04-11T09:10:19.118Z,99.90
2023-04-11T09:12:23.452Z,99.90
2023-04-11T09:14:26.272Z,99.90
2023-04-11T09:16:29.088Z,99.90
2023-04-11T09:18:32.801Z,99.90
2023-04-11T09:20:35.463Z,99.90
2023-04-11T09:22:38.100Z,99.90
2023-04-11T09:24:40.579Z,99.90
2023-04-11T09:26:43.118Z,99.90
2023-04-11T09:28:48.550Z,99.90
2023-04-11T09:30:51.656Z,99.90
2023-04-11T09:32:54.339Z,99.90
2023-04-11T09:35:07.994Z,99.90
2023-04-11T09:37:10.499Z,99.90
2023-04-11T09:39:16.913Z,99.90
2023-04-11T09:41:30.245Z,99.90
2023-04-11T09:43:49.234Z,99.90
2023-04-11T09:46:03.639Z,99.90
2023-04-11T09:48:06.338Z,99.90
2023-04-11T09:50:09.590Z,99.90
2023-04-11T09:52:12.365Z,99.90
2023-04-11T09:54:15.671Z,99.90
2023-04-11T09:56:18.340Z,99.90
2023-04-11T09:58:21.846Z,99.90
2023-04-11T10:00:27.286Z,99.90
2023-04-11T10:02:29.969Z,99.90
2023-04-11T10:04:33.951Z,99.90
2023-04-11T10:06:38.796Z,99.90
2023-04-11T10:08:41.965Z,99.90
2023-04-11T10:10:44.493Z,99.90
2023-04-11T10:12:47.681Z,99.90
2023-04-11T10:14:50.369Z,99.90
2023-04-11T10:17:12.081Z,99.90
2023-04-11T10:19:24.940Z,99.90
2023-04-11T10:21:40.560Z,99.90
2023-04-11T10:24:02.935Z,99.90
2023-04-11T10:26:07.569Z,99.90
2023-04-11T10:28:11.877Z,99.90
2023-04-11T10:30:14.394Z,99.90
2023-04-11T10:32:23.969Z,99.90
2023-04-11T10:34:26.553Z,99.90
2023-04-11T10:36:31.242Z,99.90
2023-04-11T10:38:49.498Z,99.90
2023-04-11T10:41:11.503Z,99.90
2023-04-11T10:43:20.350Z,99.90
2023-04-11T10:45:24.147Z,99.90
2023-04-11T10:47:28.312Z,99.90
2023-04-11T10:49:37.918Z,99.90
2023-04-11T10:51:40.642Z,99.90
2023-04-11T10:53:43.537Z,99.90
2023-04-11T10:55:47.114Z,99.90
2023-04-11T10:58:19.085Z,99.90
2023-04-11T11:00:21.586Z,99.90
2023-04-11T11:02:26.517Z,99.90
2023-04-11T11:04:32.276Z,99.90
2023-04-11T11:06:43.013Z,99.90
2023-04-11T11:08:41.341Z,99.90
2023-04-11T11:10:45.753Z,99.90
2023-04-11T11:12:55.413Z,99.90
2023-04-11T11:14:58.065Z,99.90
2023-04-11T11:17:00.953Z,99.90
2023-04-11T11:19:05.442Z,99.90
2023-04-11T11:21:16.940Z,99.90
2023-04-11T11:23:12.286Z,99.90
2023-04-11T11:25:14.978Z,99.90
2023-04-11T11:27:21.083Z,99.90
2023-04-11T11:29:30.580Z,99.90
2023-04-11T11:31:39.233Z,99.90
2023-04-11T11:33:41.935Z,99.90
2023-04-11T11:35:45.880Z,99.90
2023-04-11T11:37:49.456Z,99.90
2023-04-11T11:39:52.285Z,99.90
2023-04-11T11:41:55.618Z,99.90
2023-04-11T11:43:58.399Z,99.90
2023-04-11T11:46:08.833Z,99.90
2023-04-11T11:48:20.197Z,99.90
2023-04-11T11:50:26.935Z,99.90
2023-04-11T11:52:32.829Z,99.90
2023-04-11T11:54:43.393Z,99.90
2023-04-11T11:56:50.369Z,99.90
2023-04-11T11:58:52.933Z,99.90
2023-04-11T12:00:55.574Z,99.90
2023-04-11T12:02:59.209Z,99.90
2023-04-11T12:05:03.852Z,99.90
2023-04-11T12:07:09.849Z,99.90
2023-04-11T12:09:12.696Z,99.90
2023-04-11T12:11:15.485Z,99.90
2023-04-11T12:13:19.405Z,99.90
2023-04-11T12:15:22.865Z,99.90
2023-04-11T12:17:25.797Z,99.90
2023-04-11T12:19:28.408Z,99.90
2023-04-11T12:21:31.117Z,99.90
2023-04-11T12:23:33.699Z,99.90
2023-04-11T12:25:36.204Z,99.90
2023-04-11T12:27:39.092Z,99.90
2023-04-11T12:29:41.628Z,99.90
2023-04-11T12:31:45.900Z,99.90
2023-04-11T12:33:48.546Z,99.90
2023-04-11T12:35:51.063Z,99.90
2023-04-11T12:37:53.571Z,99.90
2023-04-11T12:39:56.067Z,99.90
2023-04-11T12:41:58.593Z,99.90
2023-04-11T12:44:03.251Z,99.90
2023-04-11T12:46:07.054Z,99.90
2023-04-11T12:48:10.055Z,99.90
2023-04-11T12:50:12.764Z,99.90
2023-04-11T12:52:15.841Z,99.90
2023-04-11T12:54:18.340Z,99.90
2023-04-11T12:56:20.808Z,99.90
2023-04-11T12:58:23.333Z,99.90
2023-04-11T13:00:26.047Z,99.90
2023-04-11T13:02:31.224Z,99.90
2023-04-11T13:04:32.875Z,99.90
2023-04-11T13:06:37.005Z,99.90
2023-04-11T13:08:39.529Z,99.90
2023-04-11T13:10:42.102Z,99.90
2023-04-11T13:12:45.155Z,99.90
2023-04-11T13:14:48.196Z,99.90
2023-04-11T13:16:51.154Z,99.90
2023-04-11T13:18:53.954Z,99.90
2023-04-11T13:20:58.841Z,99.90
2023-04-11T13:23:01.366Z,99.90
2023-04-11T13:25:04.455Z,99.90
2023-04-11T13:27:06.948Z,99.90
2023-04-11T13:29:09.418Z,99.90
2023-04-11T13:31:13.507Z,99.90
2023-04-11T13:33:15.967Z,99.90
2023-04-11T13:35:18.464Z,99.90
2023-04-11T13:37:21.519Z,99.90
2023-04-11T13:39:24.005Z,99.90
2023-04-11T13:41:26.463Z,99.90
2023-04-11T13:43:29.057Z,99.90
2023-04-11T13:45:31.621Z,99.90
2023-04-11T13:47:35.458Z,99.90
2023-04-11T13:49:38.536Z,99.90
2023-04-11T13:51:41.163Z,99.90
2023-04-11T13:53:43.659Z,99.90
2023-04-11T13:55:47.800Z,99.90
2023-04-11T13:57:50.392Z,99.20
2023-04-11T13:59:52.859Z,99.90
2023-04-11T14:01:55.355Z,99.90
2023-04-11T14:03:58.299Z,97.90
2023-04-11T14:06:02.792Z,99.10
2023-04-11T14:08:06.191Z,96.30
2023-04-11T14:10:09.452Z,95.00
2023-04-11T14:12:12.057Z,95.50
2023-04-11T14:14:14.662Z,95.40
2023-04-11T14:16:17.202Z,95.60
2023-04-11T14:18:19.889Z,95.60
2023-04-11T14:20:23.654Z,94.80
2023-04-11T14:22:26.753Z,96.50
2023-04-11T14:24:29.251Z,96.50
2023-04-11T14:26:31.790Z,96.50
2023-04-11T14:28:34.317Z,95.50
2023-04-11T14:30:36.959Z,94.60
2023-04-11T14:32:40.507Z,93.30
2023-04-11T14:34:44.756Z,94.90
2023-04-11T14:36:47.711Z,93.50
2023-04-11T14:38:52.499Z,94.60
2023-04-11T14:40:56.863Z,93.80
2023-04-11T14:43:01.544Z,93.50
2023-04-11T14:45:05.801Z,93.10
2023-04-11T14:47:09.314Z,92.80
2023-04-11T14:49:12.221Z,92.60
2023-04-11T14:51:15.326Z,92.60
2023-04-11T14:53:19.416Z,92.70
2023-04-11T14:55:22.704Z,93.10
2023-04-11T14:57:27.437Z,93.70
2023-04-11T14:59:31.689Z,91.20
2023-04-11T15:01:34.426Z,90.70
2023-04-11T15:03:37.517Z,92.00
2023-04-11T15:05:40.230Z,90.40
2023-04-11T15:07:43.121Z,90.30
2023-04-11T15:09:45.726Z,90.70
2023-04-11T15:11:48.556Z,90.50
2023-04-11T15:13:52.151Z,91.30
2023-04-11T15:15:56.484Z,89.60
2023-04-11T15:18:21.929Z,84.50
2023-04-11T15:20:24.480Z,86.70
2023-04-11T15:22:27.127Z,86.20
2023-04-11T15:24:29.753Z,85.00
2023-04-11T15:26:32.236Z,84.20
2023-04-11T15:28:35.735Z,85.30
2023-04-11T15:30:41.687Z,84.00
2023-04-11T15:32:44.552Z,85.20
2023-04-11T15:34:49.066Z,85.80
2023-04-11T15:36:51.535Z,85.30
2023-04-11T15:38:54.178Z,84.40
2023-04-11T15:40:57.796Z,83.00
2023-04-11T15:43:00.682Z,84.60
2023-04-11T15:45:03.226Z,81.60
2023-04-11T15:47:06.782Z,83.00
2023-04-11T15:49:09.400Z,83.10
2023-04-11T15:51:13.605Z,82.20
2023-04-11T15:53:16.318Z,84.30
2023-04-11T15:55:19.100Z,85.40
2023-04-11T15:57:21.568Z,83.40
2023-04-11T15:59:24.479Z,87.60
2023-04-11T16:01:27.545Z,83.60
2023-04-11T16:03:32.064Z,84.30
2023-04-11T16:05:36.140Z,81.50
2023-04-11T16:07:39.445Z,83.50
2023-04-11T16:09:42.044Z,79.60
2023-04-11T16:11:44.536Z,83.30
2023-04-11T16:13:47.097Z,81.20
2023-04-11T16:15:49.620Z,79.10
2023-04-11T16:17:52.144Z,81.10
2023-04-11T16:19:54.729Z,86.50
2023-04-11T16:21:57.247Z,83.20
2023-04-11T16:23:59.897Z,82.80
2023-04-11T16:26:02.598Z,84.10
2023-04-11T16:28:16.176Z,81.80
2023-04-11T16:30:18.769Z,82.20
2023-04-11T16:32:21.682Z,83.20
2023-04-11T16:34:24.500Z,83.00
2023-04-11T16:36:28.047Z,84.70
2023-04-11T16:38:30.526Z,85.80
2023-04-11T16:40:34.672Z,87.50
2023-04-11T16:42:37.312Z,85.80
2023-04-11T16:44:39.782Z,83.90
2023-04-11T16:46:42.320Z,83.40
2023-04-11T16:48:44.811Z,84.10
2023-04-11T16:50:47.272Z,86.00
2023-04-11T16:52:54.917Z,84.60
2023-04-11T16:54:58.999Z,84.10
2023-04-11T16:57:01.815Z,82.90
2023-04-11T16:59:04.748Z,83.90
2023-04-11T17:01:07.429Z,85.40
2023-04-11T17:03:10.231Z,87.00
2023-04-11T17:05:12.986Z,84.60
2023-04-11T17:07:15.557Z,85.20
2023-04-11T17:09:18.523Z,86.90
2023-04-11T17:11:21.237Z,87.80
2023-04-11T17:13:23.936Z,86.50
2023-04-11T17:15:26.431Z,88.30
2023-04-11T17:17:29.080Z,88.80
2023-04-11T17:19:31.566Z,88.30
2023-04-11T17:21:34.100Z,90.30
2023-04-11T17:23:42.929Z,90.40
2023-04-11T17:25:41.872Z,88.70
2023-04-11T17:27:44.349Z,88.50
2023-04-11T17:29:47.075Z,90.20
2023-04-11T17:31:49.540Z,90.20
2023-04-11T17:33:52.053Z,90.30
2023-04-11T17:35:54.655Z,90.30
2023-04-11T17:37:57.229Z,91.00
2023-04-11T17:39:59.784Z,91.60
2023-04-11T17:42:02.360Z,91.40
2023-04-11T17:44:04.948Z,91.70
2023-04-11T17:46:08.149Z,92.10
2023-04-11T17:48:10.756Z,92.20
2023-04-11T17:50:13.784Z,91.90
2023-04-11T17:52:16.364Z,92.00
2023-04-11T17:54:18.924Z,93.90
2023-04-11T17:56:21.586Z,94.20
2023-04-11T17:58:24.105Z,93.90
2023-04-11T18:00:28.512Z,94.20
2023-04-11T18:02:32.154Z,94.50
2023-04-11T18:04:34.836Z,94.80
2023-04-11T18:06:37.521Z,94.00
2023-04-11T18:08:49.879Z,93.60
2023-04-11T18:10:44.642Z,94.10
2023-04-11T18:12:47.948Z,94.70
2023-04-11T18:14:50.419Z,94.90
2023-04-11T18:16:52.865Z,95.30
2023-04-11T18:18:56.331Z,94.90
2023-04-11T18:21:04.024Z,95.40
2023-04-11T18:23:06.935Z,95.80
2023-04-11T18:25:10.215Z,96.10
2023-04-11T18:27:12.936Z,96.20
2023-04-11T18:29:15.584Z,96.80
2023-04-11T18:31:18.499Z,97.00
2023-04-11T18:33:21.270Z,97.10
2023-04-11T18:35:24.310Z,97.20
2023-04-11T18:37:27.001Z,97.60
2023-04-11T18:39:29.748Z,98.10
2023-04-11T18:41:32.432Z,98.40
2023-04-11T18:43:36.406Z,98.30
2023-04-11T18:45:42.733Z,98.90
2023-04-11T18:47:47.404Z,99.50
2023-04-11T18:49:57.426Z,99.80
2023-04-11T18:52:04.217Z,99.90
2023-04-11T18:54:07.859Z,99.90
2023-04-11T18:56:16.679Z,99.90
2023-04-11T18:58:23.832Z,99.90
2023-04-11T19:00:30.765Z,99.90
2023-04-11T19:02:35.941Z,99.90
2023-04-11T19:04:41.903Z,99.90
2023-04-11T19:06:46.616Z,99.90
2023-04-11T19:08:51.832Z,99.90
2023-04-11T19:10:58.829Z,99.90
2023-04-11T19:13:06.761Z,99.90
2023-04-11T19:15:13.658Z,99.90
2023-04-11T19:17:19.726Z,99.90
2023-04-11T19:19:23.515Z,99.90
2023-04-11T19:21:29.221Z,99.90
2023-04-11T19:23:40.365Z,99.90
2023-04-11T19:25:43.520Z,99.90
2023-04-11T19:27:46.723Z,99.90
2023-04-11T19:29:49.933Z,99.90
2023-04-11T19:31:52.917Z,99.90
2023-04-11T19:33:56.344Z,99.90
2023-04-11T19:35:59.473Z,99.90
2023-04-11T19:38:06.021Z,99.90
2023-04-11T19:40:11.286Z,99.90
2023-04-11T19:42:16.506Z,99.90
2023-04-11T19:44:19.265Z,99.90
2023-04-11T19:46:22.433Z,99.90
2023-04-11T19:48:26.714Z,99.90
2023-04-11T19:50:30.516Z,99.90
2023-04-11T19:52:36.620Z,99.90
2023-04-11T19:54:41.018Z,99.90
2023-04-11T19:56:45.976Z,99.90
2023-04-11T19:58:49.603Z,99.90
2023-04-11T20:00:53.914Z,99.90
2023-04-11T20:03:05.915Z,99.90
2023-04-11T20:05:10.982Z,99.90
2023-04-11T20:07:15.919Z,99.90
2023-04-11T20:09:25.852Z,99.90
2023-04-11T20:11:36.997Z,99.90
2023-04-11T20:13:44.207Z,99.90
2023-04-11T20:15:50.048Z,99.90
2023-04-11T20:17:54.498Z,99.90
2023-04-11T20:20:03.451Z,99.90
2023-04-11T20:22:11.576Z,99.90
2023-04-11T20:24:15.140Z,99.90
2023-04-11T20:26:23.204Z,99.90
2023-04-11T20:28:29.872Z,99.90
2023-04-11T20:30:33.948Z,99.90
2023-04-11T20:32:51.420Z,99.90
2023-04-11T20:35:04.675Z,99.90
2023-04-11T20:37:10.012Z,99.90
2023-04-11T20:39:13.861Z,99.90
2023-04-11T20:41:20.036Z,99.90
2023-04-11T20:43:26.592Z,99.90
2023-04-11T20:45:32.181Z,99.90
2023-04-11T20:47:37.798Z,99.90
2023-04-11T20:49:44.343Z,99.90
2023-04-11T20:51:48.135Z,99.90
2023-04-11T20:53:52.021Z,99.90
2023-04-11T20:55:55.615Z,99.90
2023-04-11T20:57:58.137Z,99.90
2023-04-11T21:00:00.825Z,99.90
2023-04-11T21:02:03.522Z,99.90
2023-04-11T21:04:06.329Z,99.90
2023-04-11T21:06:09.674Z,99.90
2023-04-11T21:08:12.741Z,99.90
2023-04-11T21:10:15.739Z,99.90
2023-04-11T21:12:18.281Z,99.90
2023-04-11T21:14:20.841Z,99.90
2023-04-11T21:16:23.494Z,99.90
2023-04-11T21:18:26.124Z,99.90
2023-04-11T21:20:28.589Z,99.90
2023-04-11T21:22:32.454Z,99.90
2023-04-11T21:24:35.223Z,99.90
2023-04-11T21:26:37.958Z,99.90
2023-04-11T21:28:40.738Z,99.90
2023-04-11T21:30:43.515Z,99.90
2023-04-11T21:32:46.450Z,99.90
2023-04-11T21:34:50.564Z,99.90
2023-04-11T21:36:55.409Z,99.90
2023-04-11T21:39:00.601Z,99.90
2023-04-11T21:41:05.620Z,99.90
2023-04-11T21:43:10.454Z,99.90
2023-04-11T21:45:14.475Z,99.90
2023-04-11T21:47:18.433Z,99.90
2023-04-11T21:49:22.338Z,99.90
2023-04-11T21:51:26.265Z,99.90
2023-04-11T21:53:28.776Z,99.90
2023-04-11T21:55:31.236Z,99.90
2023-04-11T21:57:33.842Z,99.90
2023-04-11T21:59:36.315Z,99.90
2023-04-11T22:01:58.820Z,99.90
2023-04-11T22:04:04.397Z,99.90
2023-04-11T22:06:08.641Z,99.90
2023-04-11T22:08:12.001Z,99.90
2023-04-11T22:10:14.734Z,99.90
2023-04-11T22:12:17.238Z,99.90
2023-04-11T22:14:19.796Z,99.90
2023-04-11T22:16:24.748Z,99.90
2023-04-11T22:18:27.418Z,99.90
2023-04-11T22:20:29.886Z,99.90
2023-04-11T22:22:32.387Z,99.90
2023-04-11T22:24:36.756Z,99.90
2023-04-11T22:26:41.076Z,99.90
2023-04-11T22:28:44.798Z,99.90
2023-04-11T22:30:47.287Z,99.90
2023-04-11T22:32:50.660Z,99.90
2023-04-11T22:34:53.194Z,99.90
2023-04-11T22:36:57.092Z,99.90
2023-04-11T22:39:00.380Z,99.90
2023-04-11T22:41:02.871Z,99.90
2023-04-11T22:43:05.489Z,99.90
2023-04-11T22:45:08.966Z,99.90
2023-04-11T22:47:13.222Z,99.90
2023-04-11T22:49:17.230Z,99.90
2023-04-11T22:51:21.343Z,99.90
2023-04-11T22:53:24.384Z,99.90
2023-04-11T22:55:26.915Z,99.90
2023-04-11T22:57:29.481Z,99.90
2023-04-11T22:59:32.068Z,99.90
2023-04-11T23:01:35.189Z,99.90
2023-04-11T23:03:38.022Z,99.90
2023-04-11T23:05:40.568Z,99.90
2023-04-11T23:07:43.798Z,99.90
2023-04-11T23:09:46.570Z,99.90
2023-04-11T23:11:49.099Z,99.90
2023-04-11T23:13:53.393Z,99.90
2023-04-11T23:15:56.261Z,99.90
2023-04-11T23:17:58.766Z,99.90
2023-04-11T23:20:02.064Z,99.90
2023-04-11T23:22:04.622Z,99.90
2023-04-11T23:24:08.408Z,99.90
2023-04-11T23:26:17.684Z,99.90
2023-04-11T23:28:20.560Z,99.90
2023-04-11T23:30:23.427Z,99.90
2023-04-11T23:32:26.276Z,99.90
2023-04-11T23:34:29.092Z,99.90
2023-04-11T23:36:32.284Z,99.90
2023-04-11T23:38:36.474Z,99.90
2023-04-11T23:40:39.263Z,99.90
2023-04-11T23:42:41.755Z,99.90
2023-04-11T23:44:44.229Z,99.90
2023-04-11T23:46:46.904Z,99.90
2023-04-11T23:48:49.462Z,99.90
2023-04-11T23:50:51.933Z,99.90
2023-04-11T23:52:54.416Z,99.90
2023-04-11T23:54:57.768Z,99.90
2023-04-11T23:57:01.059Z,99.90
2023-04-11T23:59:03.578Z,99.90
